sensor_id;sensor_type;location;lat;lon;timestamp;pressure;altitude;pressure_sealevel;temperature;humidity
69766;BME280;57039;48.014;21.384;2023-07-31T00:00:49;100199.72;;;17.93;100.00
69766;BME280;57039;48.014;21.384;2023-07-31T00:01:52;100200.84;;;17.91;100.00
69766;BME280;57039;48.014;21.384;2023-07-31T00:02:55;100203.66;;;17.89;100.00
69766;BME280;57039;48.014;21.384;2023-07-31T00:04:00;100200.00;;;17.90;100.00
69766;BME280;57039;48.014;21.384;2023-07-31T00:05:03;100205.31;;;17.90;100.00
69766;BME280;57039;48.014;21.384;2023-07-31T00:06:06;100207.69;;;17.93;100.00
69766;BME280;57039;48.014;21.384;2023-07-31T00:07:09;100195.25;;;17.94;100.00
69766;BME280;57039;48.014;21.384;2023-07-31T00:08:12;100200.84;;;18.00;100.00
69766;BME280;57039;48.014;21.384;2023-07-31T00:09:14;100196.66;;;17.98;100.00
69766;BME280;57039;48.014;21.384;2023-07-31T00:10:17;100202.09;;;17.96;100.00
69766;BME280;57039;48.014;21.384;2023-07-31T00:11:20;100202.94;;;17.97;100.00
69766;BME280;57039;48.014;21.384;2023-07-31T00:12:23;100202.81;;;17.98;100.00
69766;BME280;57039;48.014;21.384;2023-07-31T00:13:26;100194.84;;;17.98;100.00
69766;BME280;57039;48.014;21.384;2023-07-31T00:14:28;100207.13;;;17.99;100.00
69766;BME280;57039;48.014;21.384;2023-07-31T00:15:31;100196.78;;;17.96;100.00
69766;BME280;57039;48.014;21.384;2023-07-31T00:16:34;100197.78;;;17.95;100.00
69766;BME280;57039;48.014;21.384;2023-07-31T00:17:37;100196.66;;;17.98;100.00
69766;BME280;57039;48.014;21.384;2023-07-31T00:18:39;100181.16;;;17.93;100.00
69766;BME280;57039;48.014;21.384;2023-07-31T00:19:42;100191.91;;;18.01;100.00
69766;BME280;57039;48.014;21.384;2023-07-31T00:20:45;100195.97;;;17.96;100.00
69766;BME280;57039;48.014;21.384;2023-07-31T00:21:48;100204.31;;;17.91;100.00
69766;BME280;57039;48.014;21.384;2023-07-31T00:22:51;100203.94;;;17.86;100.00
69766;BME280;57039;48.014;21.384;2023-07-31T00:23:54;100200.84;;;17.81;100.00
69766;BME280;57039;48.014;21.384;2023-07-31T00:24:57;100206.66;;;17.75;100.00
69766;BME280;57039;48.014;21.384;2023-07-31T00:26:00;100205.25;;;17.71;100.00
69766;BME280;57039;48.014;21.384;2023-07-31T00:27:03;100216.56;;;17.73;100.00
69766;BME280;57039;48.014;21.384;2023-07-31T00:28:06;100201.91;;;17.69;100.00
69766;BME280;57039;48.014;21.384;2023-07-31T00:29:09;100215.88;;;17.71;100.00
69766;BME280;57039;48.014;21.384;2023-07-31T00:30:12;100194.09;;;17.67;100.00
69766;BME280;57039;48.014;21.384;2023-07-31T00:31:14;100207.91;;;17.71;100.00
69766;BME280;57039;48.014;21.384;2023-07-31T00:32:17;100206.25;;;17.70;100.00
69766;BME280;57039;48.014;21.384;2023-07-31T00:33:20;100209.87;;;17.69;100.00
69766;BME280;57039;48.014;21.384;2023-07-31T00:34:23;100199.38;;;17.67;100.00
69766;BME280;57039;48.014;21.384;2023-07-31T00:35:26;100202.75;;;17.69;100.00
69766;BME280;57039;48.014;21.384;2023-07-31T00:36:28;100208.88;;;17.70;100.00
69766;BME280;57039;48.014;21.384;2023-07-31T00:37:31;100200.09;;;17.69;100.00
69766;BME280;57039;48.014;21.384;2023-07-31T00:38:34;100201.91;;;17.69;100.00
69766;BME280;57039;48.014;21.384;2023-07-31T00:39:37;100199.25;;;17.69;100.00
69766;BME280;57039;48.014;21.384;2023-07-31T00:40:40;100202.47;;;17.72;100.00
69766;BME280;57039;48.014;21.384;2023-07-31T00:41:42;100175.22;;;17.61;100.00
69766;BME280;57039;48.014;21.384;2023-07-31T00:42:45;100202.78;;;17.79;100.00
69766;BME280;57039;48.014;21.384;2023-07-31T00:43:49;100202.50;;;17.82;100.00
69766;BME280;57039;48.014;21.384;2023-07-31T00:44:52;100206.69;;;17.85;100.00
69766;BME280;57039;48.014;21.384;2023-07-31T00:45:54;100208.09;;;17.89;100.00
69766;BME280;57039;48.014;21.384;2023-07-31T00:46:57;100210.91;;;17.87;100.00
69766;BME280;57039;48.014;21.384;2023-07-31T00:48:01;100209.06;;;17.88;100.00
69766;BME280;57039;48.014;21.384;2023-07-31T00:49:05;100209.91;;;17.88;100.00
69766;BME280;57039;48.014;21.384;2023-07-31T00:50:08;100204.88;;;17.85;100.00
69766;BME280;57039;48.014;21.384;2023-07-31T00:51:13;100204.75;;;17.87;100.00
69766;BME280;57039;48.014;21.384;2023-07-31T00:52:16;100205.44;;;17.89;100.00
69766;BME280;57039;48.014;21.384;2023-07-31T00:53:19;100206.69;;;17.94;100.00
69766;BME280;57039;48.014;21.384;2023-07-31T00:54:22;100205.88;;;17.94;100.00
69766;BME280;57039;48.014;21.384;2023-07-31T00:55:25;100203.09;;;17.95;100.00
69766;BME280;57039;48.014;21.384;2023-07-31T00:56:28;100176.13;;;17.81;100.00
69766;BME280;57039;48.014;21.384;2023-07-31T00:57:32;100206.28;;;17.99;100.00
69766;BME280;57039;48.014;21.384;2023-07-31T00:58:35;100205.47;;;17.98;100.00
69766;BME280;57039;48.014;21.384;2023-07-31T00:59:38;100199.87;;;18.01;100.00
69766;BME280;57039;48.014;21.384;2023-07-31T01:00:42;100204.19;;;18.02;100.00
69766;BME280;57039;48.014;21.384;2023-07-31T01:01:45;100204.62;;;18.08;100.00
69766;BME280;57039;48.014;21.384;2023-07-31T01:02:49;100195.66;;;18.09;100.00
69766;BME280;57039;48.014;21.384;2023-07-31T01:03:53;100197.34;;;18.10;100.00
69766;BME280;57039;48.014;21.384;2023-07-31T01:04:56;100195.94;;;18.15;100.00
69766;BME280;57039;48.014;21.384;2023-07-31T01:06:15;100199.16;;;18.19;100.00
69766;BME280;57039;48.014;21.384;2023-07-31T01:08:41;100196.34;;;18.30;100.00
69766;BME280;57039;48.014;21.384;2023-07-31T01:10:01;100195.50;;;18.30;100.00
69766;BME280;57039;48.014;21.384;2023-07-31T01:11:13;100188.38;;;18.30;100.00
69766;BME280;57039;48.014;21.384;2023-07-31T01:12:19;100185.03;;;18.28;100.00
69766;BME280;57039;48.014;21.384;2023-07-31T01:13:22;100191.03;;;18.30;100.00
69766;BME280;57039;48.014;21.384;2023-07-31T01:14:25;100194.25;;;18.34;100.00
69766;BME280;57039;48.014;21.384;2023-07-31T01:15:28;100192.97;;;18.38;100.00
69766;BME280;57039;48.014;21.384;2023-07-31T01:16:31;100196.06;;;18.43;100.00
69766;BME280;57039;48.014;21.384;2023-07-31T01:17:34;100190.16;;;18.39;100.00
69766;BME280;57039;48.014;21.384;2023-07-31T01:18:37;100192.97;;;18.47;100.00
69766;BME280;57039;48.014;21.384;2023-07-31T01:19:39;100188.34;;;18.50;100.00
69766;BME280;57039;48.014;21.384;2023-07-31T01:20:42;100190.31;;;18.47;100.00
69766;BME280;57039;48.014;21.384;2023-07-31T01:23:23;100183.91;;;18.40;100.00
69766;BME280;57039;48.014;21.384;2023-07-31T01:26:11;100179.84;;;18.36;100.00
69766;BME280;57039;48.014;21.384;2023-07-31T01:27:21;100177.34;;;18.35;100.00
69766;BME280;57039;48.014;21.384;2023-07-31T01:30:11;100190.75;;;18.33;100.00
69766;BME280;57039;48.014;21.384;2023-07-31T01:31:25;100187.25;;;18.33;100.00
69766;BME280;57039;48.014;21.384;2023-07-31T01:32:31;100183.22;;;18.29;100.00
69766;BME280;57039;48.014;21.384;2023-07-31T01:33:35;100181.81;;;18.24;100.00
69766;BME280;57039;48.014;21.384;2023-07-31T01:34:39;100151.25;;;18.01;100.00
69766;BME280;57039;48.014;21.384;2023-07-31T01:35:45;100180.41;;;18.20;100.00
69766;BME280;57039;48.014;21.384;2023-07-31T01:36:48;100180.59;;;18.19;100.00
69766;BME280;57039;48.014;21.384;2023-07-31T01:37:55;100178.88;;;18.18;100.00
69766;BME280;57039;48.014;21.384;2023-07-31T01:38:58;100178.22;;;18.16;100.00
69766;BME280;57039;48.014;21.384;2023-07-31T01:40:02;100175.97;;;18.11;100.00
69766;BME280;57039;48.014;21.384;2023-07-31T01:41:05;100173.72;;;18.07;100.00
69766;BME280;57039;48.014;21.384;2023-07-31T01:42:08;100176.53;;;18.05;100.00
69766;BME280;57039;48.014;21.384;2023-07-31T01:43:11;100175.16;;;18.01;100.00
69766;BME280;57039;48.014;21.384;2023-07-31T01:44:14;100178.63;;;18.01;100.00
69766;BME280;57039;48.014;21.384;2023-07-31T01:45:17;100183.25;;;17.99;100.00
69766;BME280;57039;48.014;21.384;2023-07-31T01:46:19;100187.84;;;17.97;100.00
69766;BME280;57039;48.014;21.384;2023-07-31T01:47:22;100186.44;;;17.93;100.00
69766;BME280;57039;48.014;21.384;2023-07-31T01:48:26;100185.75;;;17.91;100.00
69766;BME280;57039;48.014;21.384;2023-07-31T01:49:29;100188.41;;;17.91;100.00
69766;BME280;57039;48.014;21.384;2023-07-31T01:50:32;100182.41;;;17.89;100.00
69766;BME280;57039;48.014;21.384;2023-07-31T01:51:34;100182.25;;;17.91;100.00
69766;BME280;57039;48.014;21.384;2023-07-31T01:52:37;100189.09;;;17.93;100.00
69766;BME280;57039;48.014;21.384;2023-07-31T01:53:40;100186.56;;;17.92;100.00
69766;BME280;57039;48.014;21.384;2023-07-31T01:54:43;100185.75;;;17.91;100.00
69766;BME280;57039;48.014;21.384;2023-07-31T01:55:45;100186.03;;;17.88;100.00
69766;BME280;57039;48.014;21.384;2023-07-31T01:56:48;100184.78;;;17.92;100.00
69766;BME280;57039;48.014;21.384;2023-07-31T01:57:51;100177.38;;;17.86;100.00
69766;BME280;57039;48.014;21.384;2023-07-31T01:58:55;100190.66;;;17.96;100.00
69766;BME280;57039;48.014;21.384;2023-07-31T01:59:57;100180.88;;;17.96;100.00
69766;BME280;57039;48.014;21.384;2023-07-31T02:01:00;100184.22;;;17.98;100.00
69766;BME280;57039;48.014;21.384;2023-07-31T02:02:03;100191.19;;;17.99;100.00
69766;BME280;57039;48.014;21.384;2023-07-31T02:03:06;100197.50;;;17.98;100.00
69766;BME280;57039;48.014;21.384;2023-07-31T02:04:09;100191.06;;;18.01;100.00
69766;BME280;57039;48.014;21.384;2023-07-31T02:05:12;100195.53;;;18.00;100.00
69766;BME280;57039;48.014;21.384;2023-07-31T02:06:14;100188.25;;;18.02;100.00
69766;BME280;57039;48.014;21.384;2023-07-31T02:07:18;100187.44;;;18.02;100.00
69766;BME280;57039;48.014;21.384;2023-07-31T02:08:20;100183.50;;;18.06;100.00
69766;BME280;57039;48.014;21.384;2023-07-31T02:09:23;100184.34;;;18.07;100.00
69766;BME280;57039;48.014;21.384;2023-07-31T02:10:27;100185.31;;;18.06;100.00
69766;BME280;57039;48.014;21.384;2023-07-31T02:11:30;100190.78;;;18.04;100.00
69766;BME280;57039;48.014;21.384;2023-07-31T02:12:32;100192.31;;;18.07;100.00
69766;BME280;57039;48.014;21.384;2023-07-31T02:13:36;100180.03;;;18.06;100.00
69766;BME280;57039;48.014;21.384;2023-07-31T02:14:40;100178.22;;;17.96;100.00
69766;BME280;57039;48.014;21.384;2023-07-31T02:15:43;100185.31;;;18.06;100.00
69766;BME280;57039;48.014;21.384;2023-07-31T02:16:45;100190.50;;;18.07;100.00
69766;BME280;57039;48.014;21.384;2023-07-31T02:17:48;100186.16;;;18.06;100.00
69766;BME280;57039;48.014;21.384;2023-07-31T02:18:51;100190.50;;;18.07;100.00
69766;BME280;57039;48.014;21.384;2023-07-31T02:19:54;100188.69;;;18.08;100.00
69766;BME280;57039;48.014;21.384;2023-07-31T02:20:57;100189.94;;;18.03;100.00
69766;BME280;57039;48.014;21.384;2023-07-31T02:22:00;100182.13;;;18.02;100.00
69766;BME280;57039;48.014;21.384;2023-07-31T02:23:03;100186.31;;;18.05;100.00
69766;BME280;57039;48.014;21.384;2023-07-31T02:24:06;100188.53;;;17.99;100.00
69766;BME280;57039;48.014;21.384;2023-07-31T02:25:09;100182.13;;;17.92;100.00
69766;BME280;57039;48.014;21.384;2023-07-31T02:26:11;100189.66;;;17.87;100.00
69766;BME280;57039;48.014;21.384;2023-07-31T02:27:14;100178.78;;;17.81;100.00
69766;BME280;57039;48.014;21.384;2023-07-31T02:28:16;100188.28;;;17.83;100.00
69766;BME280;57039;48.014;21.384;2023-07-31T02:29:19;100176.06;;;17.71;100.00
69766;BME280;57039;48.014;21.384;2023-07-31T02:30:22;100185.44;;;17.75;100.00
69766;BME280;57039;48.014;21.384;2023-07-31T02:31:25;100170.47;;;17.64;100.00
69766;BME280;57039;48.014;21.384;2023-07-31T02:32:28;100181.12;;;17.74;100.00
69766;BME280;57039;48.014;21.384;2023-07-31T02:33:31;100182.09;;;17.73;100.00
69766;BME280;57039;48.014;21.384;2023-07-31T02:34:33;100173.69;;;17.68;100.00
69766;BME280;57039;48.014;21.384;2023-07-31T02:35:36;100186.03;;;17.78;100.00
69766;BME280;57039;48.014;21.384;2023-07-31T02:36:39;100181.81;;;17.76;100.00
69766;BME280;57039;48.014;21.384;2023-07-31T02:37:42;100185.72;;;17.72;100.00
69766;BME280;57039;48.014;21.384;2023-07-31T02:38:45;100195.91;;;17.67;100.00
69766;BME280;57039;48.014;21.384;2023-07-31T02:39:48;100188.50;;;17.61;100.00
69766;BME280;57039;48.014;21.384;2023-07-31T02:40:51;100197.72;;;17.56;100.00
69766;BME280;57039;48.014;21.384;2023-07-31T02:41:54;100201.59;;;17.52;100.00
69766;BME280;57039;48.014;21.384;2023-07-31T02:42:58;100201.88;;;17.49;100.00
69766;BME280;57039;48.014;21.384;2023-07-31T02:44:01;100186.78;;;17.40;100.00
69766;BME280;57039;48.014;21.384;2023-07-31T02:45:04;100198.94;;;17.43;100.00
69766;BME280;57039;48.014;21.384;2023-07-31T02:46:07;100202.69;;;17.40;100.00
69766;BME280;57039;48.014;21.384;2023-07-31T02:47:10;100204.94;;;17.35;100.00
69766;BME280;57039;48.014;21.384;2023-07-31T02:48:13;100208.09;;;17.29;100.00
69766;BME280;57039;48.014;21.384;2023-07-31T02:49:15;100208.53;;;17.24;100.00
69766;BME280;57039;48.014;21.384;2023-07-31T02:50:18;100211.56;;;17.20;100.00
69766;BME280;57039;48.014;21.384;2023-07-31T02:51:21;100208.06;;;17.19;100.00
69766;BME280;57039;48.014;21.384;2023-07-31T02:52:27;100219.78;;;17.17;100.00
69766;BME280;57039;48.014;21.384;2023-07-31T02:53:29;100219.78;;;17.17;100.00
69766;BME280;57039;48.014;21.384;2023-07-31T02:54:32;100221.47;;;17.18;100.00
69766;BME280;57039;48.014;21.384;2023-07-31T02:55:35;100219.84;;;17.26;100.00
69766;BME280;57039;48.014;21.384;2023-07-31T02:56:38;100225.53;;;17.22;100.00
69766;BME280;57039;48.014;21.384;2023-07-31T02:57:41;100182.16;;;16.92;100.00
69766;BME280;57039;48.014;21.384;2023-07-31T02:58:44;100224.69;;;17.21;100.00
69766;BME280;57039;48.014;21.384;2023-07-31T02:59:46;100223.87;;;17.21;100.00
69766;BME280;57039;48.014;21.384;2023-07-31T03:00:49;100208.75;;;17.11;100.00
69766;BME280;57039;48.014;21.384;2023-07-31T03:01:52;100219.66;;;17.18;100.00
69766;BME280;57039;48.014;21.384;2023-07-31T03:02:55;100205.41;;;17.09;100.00
69766;BME280;57039;48.014;21.384;2023-07-31T03:03:58;100220.75;;;17.16;100.00
69766;BME280;57039;48.014;21.384;2023-07-31T03:05:00;100221.59;;;17.16;100.00
69766;BME280;57039;48.014;21.384;2023-07-31T03:06:03;100217.84;;;17.19;100.00
69766;BME280;57039;48.014;21.384;2023-07-31T03:07:06;100221.34;;;17.19;100.00
69766;BME280;57039;48.014;21.384;2023-07-31T03:08:09;100222.88;;;17.22;100.00
69766;BME280;57039;48.014;21.384;2023-07-31T03:09:11;100218.97;;;17.26;100.00
69766;BME280;57039;48.014;21.384;2023-07-31T03:10:14;100227.91;;;17.25;100.00
69766;BME280;57039;48.014;21.384;2023-07-31T03:11:17;100209.91;;;17.19;100.00
69766;BME280;57039;48.014;21.384;2023-07-31T03:12:20;100211.16;;;17.24;100.00
69766;BME280;57039;48.014;21.384;2023-07-31T03:13:23;100195.63;;;17.10;100.00
69766;BME280;57039;48.014;21.384;2023-07-31T03:14:26;100214.94;;;17.22;100.00
69766;BME280;57039;48.014;21.384;2023-07-31T03:15:31;100217.47;;;17.23;100.00
69766;BME280;57039;48.014;21.384;2023-07-31T03:16:34;100218.28;;;17.24;100.00
69766;BME280;57039;48.014;21.384;2023-07-31T03:17:37;100213.00;;;17.24;100.00
69766;BME280;57039;48.014;21.384;2023-07-31T03:18:40;100217.56;;;17.22;100.00
69766;BME280;57039;48.014;21.384;2023-07-31T03:19:42;100213.25;;;17.21;100.00
69766;BME280;57039;48.014;21.384;2023-07-31T03:20:45;100213.09;;;17.22;100.00
69766;BME280;57039;48.014;21.384;2023-07-31T03:21:48;100204.88;;;17.25;100.00
69766;BME280;57039;48.014;21.384;2023-07-31T03:22:51;100213.66;;;17.26;100.00
69766;BME280;57039;48.014;21.384;2023-07-31T03:23:54;100212.72;;;17.27;100.00
69766;BME280;57039;48.014;21.384;2023-07-31T03:24:56;100218.69;;;17.29;100.00
69766;BME280;57039;48.014;21.384;2023-07-31T03:26:01;100218.31;;;17.33;100.00
69766;BME280;57039;48.014;21.384;2023-07-31T03:27:06;100221.81;;;17.34;100.00
69766;BME280;57039;48.014;21.384;2023-07-31T03:28:09;100218.75;;;17.39;100.00
69766;BME280;57039;48.014;21.384;2023-07-31T03:29:11;100223.78;;;17.42;100.00
69766;BME280;57039;48.014;21.384;2023-07-31T03:30:15;100221.13;;;17.42;100.00
69766;BME280;57039;48.014;21.384;2023-07-31T03:31:17;100227.66;;;17.38;100.00
69766;BME280;57039;48.014;21.384;2023-07-31T03:32:20;100223.50;;;17.35;100.00
69766;BME280;57039;48.014;21.384;2023-07-31T03:33:23;100222.50;;;17.36;100.00
69766;BME280;57039;48.014;21.384;2023-07-31T03:34:26;100216.50;;;17.34;100.00
69766;BME280;57039;48.014;21.384;2023-07-31T03:35:28;100216.50;;;17.34;100.00
69766;BME280;57039;48.014;21.384;2023-07-31T03:36:31;100212.47;;;17.40;100.00
69766;BME280;57039;48.014;21.384;2023-07-31T03:37:34;100213.03;;;17.43;100.00
69766;BME280;57039;48.014;21.384;2023-07-31T03:38:37;100219.03;;;17.45;100.00
69766;BME280;57039;48.014;21.384;2023-07-31T03:39:40;100217.50;;;17.43;100.00
69766;BME280;57039;48.014;21.384;2023-07-31T03:40:42;100221.97;;;17.42;100.00
69766;BME280;57039;48.014;21.384;2023-07-31T03:41:45;100213.44;;;17.39;100.00
69766;BME280;57039;48.014;21.384;2023-07-31T03:42:48;100216.41;;;17.45;100.00
69766;BME280;57039;48.014;21.384;2023-07-31T03:43:54;100220.03;;;17.44;100.00
69766;BME280;57039;48.014;21.384;2023-07-31T03:44:58;100218.06;;;17.46;100.00
69766;BME280;57039;48.014;21.384;2023-07-31T03:46:01;100218.22;;;17.45;100.00
69766;BME280;57039;48.014;21.384;2023-07-31T03:47:05;100178.78;;;17.21;100.00
69766;BME280;57039;48.014;21.384;2023-07-31T03:48:11;100220.16;;;17.52;100.00
69766;BME280;57039;48.014;21.384;2023-07-31T03:49:14;100220.88;;;17.64;100.00
69766;BME280;57039;48.014;21.384;2023-07-31T03:50:17;100220.50;;;17.69;100.00
69766;BME280;57039;48.014;21.384;2023-07-31T03:51:28;100217.69;;;17.70;100.00
69766;BME280;57039;48.014;21.384;2023-07-31T03:52:31;100227.34;;;17.71;100.00
69766;BME280;57039;48.014;21.384;2023-07-31T03:53:34;100225.09;;;17.67;100.00
69766;BME280;57039;48.014;21.384;2023-07-31T03:54:39;100219.09;;;17.74;100.00
69766;BME280;57039;48.014;21.384;2023-07-31T03:55:42;100231.25;;;17.77;100.00
69766;BME280;57039;48.014;21.384;2023-07-31T03:56:45;100234.50;;;17.81;100.00
69766;BME280;57039;48.014;21.384;2023-07-31T03:57:48;100234.34;;;17.82;100.00
69766;BME280;57039;48.014;21.384;2023-07-31T03:58:50;100236.44;;;17.88;100.00
69766;BME280;57039;48.014;21.384;2023-07-31T03:59:53;100235.50;;;17.89;100.00
69766;BME280;57039;48.014;21.384;2023-07-31T04:00:56;100230.47;;;17.96;100.00
69766;BME280;57039;48.014;21.384;2023-07-31T04:02:01;100241.63;;;17.99;100.00
69766;BME280;57039;48.014;21.384;2023-07-31T04:03:04;100202.22;;;17.85;100.00
69766;BME280;57039;48.014;21.384;2023-07-31T04:04:06;100233.37;;;18.12;100.00
69766;BME280;57039;48.014;21.384;2023-07-31T04:05:09;100236.91;;;18.13;100.00
69766;BME280;57039;48.014;21.384;2023-07-31T04:06:13;100238.13;;;18.18;100.00
69766;BME280;57039;48.014;21.384;2023-07-31T04:07:16;100241.38;;;18.22;100.00
69766;BME280;57039;48.014;21.384;2023-07-31T04:08:19;100231.44;;;18.24;100.00
69766;BME280;57039;48.014;21.384;2023-07-31T04:09:21;100235.31;;;18.39;100.00
69766;BME280;57039;48.014;21.384;2023-07-31T04:10:24;100232.09;;;18.45;100.00
69766;BME280;57039;48.014;21.384;2023-07-31T04:11:27;100229.16;;;18.48;100.00
69766;BME280;57039;48.014;21.384;2023-07-31T04:12:30;100233.94;;;18.55;100.00
69766;BME280;57039;48.014;21.384;2023-07-31T04:13:32;100235.31;;;18.59;100.00
69766;BME280;57039;48.014;21.384;2023-07-31T04:14:36;100231.91;;;18.66;100.00
69766;BME280;57039;48.014;21.384;2023-07-31T04:15:39;100229.25;;;18.66;100.00
69766;BME280;57039;48.014;21.384;2023-07-31T04:16:42;100234.03;;;18.73;100.00
69766;BME280;57039;48.014;21.384;2023-07-31T04:17:45;100228.16;;;18.79;100.00
69766;BME280;57039;48.014;21.384;2023-07-31T04:18:47;100234.69;;;18.84;100.00
69766;BME280;57039;48.014;21.384;2023-07-31T04:19:50;100237.06;;;18.87;100.00
69766;BME280;57039;48.014;21.384;2023-07-31T04:20:53;100232.31;;;18.91;100.00
69766;BME280;57039;48.014;21.384;2023-07-31T04:21:56;100234.25;;;18.99;100.00
69766;BME280;57039;48.014;21.384;2023-07-31T04:22:59;100233.94;;;19.02;100.00
69766;BME280;57039;48.014;21.384;2023-07-31T04:24:01;100236.56;;;19.11;100.00
69766;BME280;57039;48.014;21.384;2023-07-31T04:25:04;100238.09;;;19.14;100.00
69766;BME280;57039;48.014;21.384;2023-07-31T04:26:07;100240.63;;;19.15;100.00
69766;BME280;57039;48.014;21.384;2023-07-31T04:27:10;100240.47;;;19.17;100.00
69766;BME280;57039;48.014;21.384;2023-07-31T04:28:13;100234.19;;;19.18;100.00
69766;BME280;57039;48.014;21.384;2023-07-31T04:29:15;100243.53;;;19.22;100.00
69766;BME280;57039;48.014;21.384;2023-07-31T04:30:18;100239.75;;;19.25;100.00
69766;BME280;57039;48.014;21.384;2023-07-31T04:31:21;100239.16;;;19.31;100.00
69766;BME280;57039;48.014;21.384;2023-07-31T04:32:23;100242.88;;;19.38;100.00
69766;BME280;57039;48.014;21.384;2023-07-31T04:33:26;100239.94;;;19.41;100.00
69766;BME280;57039;48.014;21.384;2023-07-31T04:34:29;100248.91;;;19.40;100.00
69766;BME280;57039;48.014;21.384;2023-07-31T04:35:32;100253.63;;;19.46;100.00
69766;BME280;57039;48.014;21.384;2023-07-31T04:37:04;100244.94;;;19.54;100.00
69766;BME280;57039;48.014;21.384;2023-07-31T04:38:07;100251.88;;;19.65;100.00
69766;BME280;57039;48.014;21.384;2023-07-31T04:39:10;100245.69;;;19.64;100.00
69766;BME280;57039;48.014;21.384;2023-07-31T04:40:12;100250.44;;;19.70;100.00
69766;BME280;57039;48.014;21.384;2023-07-31T04:41:15;100243.00;;;19.74;100.00
69766;BME280;57039;48.014;21.384;2023-07-31T04:42:18;100247.72;;;19.80;100.00
69766;BME280;57039;48.014;21.384;2023-07-31T04:43:21;100254.72;;;19.81;100.00
69766;BME280;57039;48.014;21.384;2023-07-31T04:44:24;100254.56;;;19.82;100.00
69766;BME280;57039;48.014;21.384;2023-07-31T04:45:26;100250.78;;;19.85;100.00
69766;BME280;57039;48.014;21.384;2023-07-31T04:46:29;100250.34;;;19.90;100.00
69766;BME280;57039;48.014;21.384;2023-07-31T04:47:32;100260.87;;;19.81;100.00
69766;BME280;57039;48.014;21.384;2023-07-31T04:48:35;100253.34;;;19.95;100.00
69766;BME280;57039;48.014;21.384;2023-07-31T04:49:38;100252.59;;;20.02;100.00
69766;BME280;57039;48.014;21.384;2023-07-31T04:50:41;100256.63;;;20.06;100.00
69766;BME280;57039;48.014;21.384;2023-07-31T04:51:44;100256.50;;;20.08;100.00
69766;BME280;57039;48.014;21.384;2023-07-31T04:52:46;100260.06;;;20.17;100.00
69766;BME280;57039;48.014;21.384;2023-07-31T04:53:49;100259.16;;;20.26;100.00
69766;BME280;57039;48.014;21.384;2023-07-31T04:54:52;100247.09;;;20.22;100.00
69766;BME280;57039;48.014;21.384;2023-07-31T04:55:55;100261.72;;;20.36;100.00
69766;BME280;57039;48.014;21.384;2023-07-31T04:56:57;100259.75;;;20.38;100.00
69766;BME280;57039;48.014;21.384;2023-07-31T04:58:00;100269.09;;;20.42;100.00
69766;BME280;57039;48.014;21.384;2023-07-31T04:59:03;100266.66;;;20.48;100.00
69766;BME280;57039;48.014;21.384;2023-07-31T05:00:06;100268.19;;;20.51;100.00
69766;BME280;57039;48.014;21.384;2023-07-31T05:01:10;100282.13;;;20.63;100.00
69766;BME280;57039;48.014;21.384;2023-07-31T05:02:13;100270.13;;;20.59;100.00
69766;BME280;57039;48.014;21.384;2023-07-31T05:03:16;100272.28;;;20.63;100.00
69766;BME280;57039;48.014;21.384;2023-07-31T05:04:18;100270.69;;;20.70;100.00
69766;BME280;57039;48.014;21.384;2023-07-31T05:05:21;100276.75;;;20.81;100.00
69766;BME280;57039;48.014;21.384;2023-07-31T05:06:24;100274.47;;;20.86;100.00
69766;BME280;57039;48.014;21.384;2023-07-31T05:07:27;100277.84;;;20.96;100.00
69766;BME280;57039;48.014;21.384;2023-07-31T05:08:31;100276.50;;;20.92;100.00
69766;BME280;57039;48.014;21.384;2023-07-31T05:09:39;100285.53;;;20.99;100.00
69766;BME280;57039;48.014;21.384;2023-07-31T05:10:45;100274.22;;;21.05;100.00
69766;BME280;57039;48.014;21.384;2023-07-31T05:11:49;100275.94;;;21.06;100.00
69766;BME280;57039;48.014;21.384;2023-07-31T05:12:52;100274.44;;;21.12;100.00
69766;BME280;57039;48.014;21.384;2023-07-31T05:13:54;100279.25;;;21.08;100.00
69766;BME280;57039;48.014;21.384;2023-07-31T05:14:57;100275.81;;;21.16;100.00
69766;BME280;57039;48.014;21.384;2023-07-31T05:16:00;100277.87;;;21.30;100.00
69766;BME280;57039;48.014;21.384;2023-07-31T05:17:05;100278.22;;;21.35;100.00
69766;BME280;57039;48.014;21.384;2023-07-31T05:18:12;100280.28;;;21.41;100.00
69766;BME280;57039;48.014;21.384;2023-07-31T05:19:17;100275.81;;;21.42;100.00
69766;BME280;57039;48.014;21.384;2023-07-31T05:20:21;100280.19;;;21.51;100.00
69766;BME280;57039;48.014;21.384;2023-07-31T05:21:24;100266.47;;;21.46;100.00
69766;BME280;57039;48.014;21.384;2023-07-31T05:22:27;100283.22;;;21.64;100.00
69766;BME280;57039;48.014;21.384;2023-07-31T05:23:29;100278.69;;;21.65;100.00
69766;BME280;57039;48.014;21.384;2023-07-31T05:24:35;100278.88;;;21.72;100.00
69766;BME280;57039;48.014;21.384;2023-07-31T05:25:38;100275.59;;;21.78;100.00
69766;BME280;57039;48.014;21.384;2023-07-31T05:26:41;100272.38;;;21.74;100.00
69766;BME280;57039;48.014;21.384;2023-07-31T05:27:44;100275.59;;;21.78;100.00
69766;BME280;57039;48.014;21.384;2023-07-31T05:28:47;100272.78;;;21.87;100.00
69766;BME280;57039;48.014;21.384;2023-07-31T05:29:49;100270.97;;;21.96;100.00